Terminal Aerodrome Forecast
Issued by NWS

Home | Current Version | Previous Version | Text Only | Print | Product List | Glossary On
Versions: 1 2 3 4 5 6 7 8 9 10 11 12 13 14 15 16 17 18 19 20 21 22 23 24 25 26 27 28 29
000
FTUS44 KOHX 231725
TAFCKV
TAF
KCKV 231725Z 2318/2418 04004KT P6SM OVC100
     FM232000 13007KT P6SM OVC100
     FM240400 16010G18KT P6SM BKN050 OVC080
     FM241100 18012G20KT P6SM OVC025=

USA.gov is the U.S. government's official web portal to all federal, state and local government web resources and services.